createdAt,value
2017-12-17T00:00:55.935Z,75.50
2017-12-17T00:03:23.490Z,75.50
2017-12-17T00:05:51.053Z,75.50
2017-12-17T00:08:18.628Z,75.50
2017-12-17T00:10:46.944Z,75.70
2017-12-17T00:13:14.497Z,75.70
2017-12-17T00:15:42.067Z,75.70
2017-12-17T00:18:09.623Z,75.60
2017-12-17T00:20:37.197Z,75.90
2017-12-17T00:23:04.763Z,76.00
2017-12-17T00:25:32.340Z,76.20
2017-12-17T00:27:59.906Z,76.00
2017-12-17T00:30:27.475Z,76.00
2017-12-17T00:32:55.024Z,75.80
2017-12-17T00:35:22.574Z,75.60
2017-12-17T00:37:50.162Z,75.60
2017-12-17T00:40:17.719Z,76.00
2017-12-17T00:42:45.296Z,75.80
2017-12-17T00:45:13.650Z,76.40
2017-12-17T00:47:41.209Z,76.40
2017-12-17T00:50:08.756Z,76.70
2017-12-17T00:52:36.334Z,76.20
2017-12-17T00:55:03.875Z,76.20
2017-12-17T00:57:32.217Z,76.00
2017-12-17T00:59:59.787Z,76.00
2017-12-17T01:02:27.333Z,76.10
2017-12-17T01:04:55.666Z,75.60
2017-12-17T01:07:23.252Z,75.60
2017-12-17T01:09:51.582Z,75.60
2017-12-17T01:12:19.148Z,75.60
2017-12-17T01:14:46.721Z,75.90
2017-12-17T01:17:14.265Z,76.00
2017-12-17T01:19:41.824Z,76.40
2017-12-17T01:22:09.408Z,76.20
2017-12-17T01:24:37.725Z,76.10
2017-12-17T01:27:05.290Z,76.10
2017-12-17T01:29:32.861Z,75.80
2017-12-17T01:32:00.410Z,76.30
2017-12-17T01:34:27.954Z,76.30
2017-12-17T01:36:55.538Z,76.40
2017-12-17T01:39:23.118Z,76.40
2017-12-17T01:41:50.669Z,76.00
2017-12-17T01:44:18.262Z,75.80
2017-12-17T01:46:45.845Z,76.20
2017-12-17T01:49:13.397Z,76.60
2017-12-17T01:51:41.730Z,75.90
2017-12-17T01:54:09.306Z,75.90
2017-12-17T01:56:36.860Z,76.30
2017-12-17T01:59:04.440Z,76.00
2017-12-17T02:01:32.786Z,75.80
2017-12-17T02:04:00.327Z,75.80
2017-12-17T02:06:27.909Z,75.50
2017-12-17T02:08:55.465Z,75.50
2017-12-17T02:11:23.013Z,76.10
2017-12-17T02:13:50.609Z,76.50
2017-12-17T02:16:18.161Z,76.70
2017-12-17T02:18:45.742Z,77.20
2017-12-17T02:21:14.101Z,77.80
2017-12-17T02:23:41.653Z,77.80
2017-12-17T02:26:09.224Z,77.90
2017-12-17T02:28:36.805Z,77.90
2017-12-17T02:31:05.134Z,78.30
2017-12-17T02:33:32.701Z,78.30
2017-12-17T02:36:00.263Z,78.20
2017-12-17T02:38:27.808Z,78.20
2017-12-17T02:40:55.384Z,78.10
2017-12-17T02:43:22.992Z,78.00
2017-12-17T02:45:50.543Z,77.90
2017-12-17T02:48:18.872Z,78.20
2017-12-17T02:50:46.446Z,78.20
2017-12-17T02:53:13.993Z,77.80
2017-12-17T02:55:41.541Z,77.70
2017-12-17T02:58:09.108Z,77.70
2017-12-17T03:00:36.663Z,77.80
2017-12-17T03:03:04.217Z,77.90
2017-12-17T03:05:31.809Z,77.70
2017-12-17T03:07:59.366Z,77.80
2017-12-17T03:10:26.923Z,78.00
2017-12-17T03:12:54.488Z,77.90
2017-12-17T03:15:22.023Z,77.80
2017-12-17T03:17:49.596Z,77.90
2017-12-17T03:20:17.177Z,78.20
2017-12-17T03:22:44.744Z,78.10
2017-12-17T03:25:13.080Z,78.10
2017-12-17T03:27:40.656Z,78.20
2017-12-17T03:30:08.196Z,78.20
2017-12-17T03:32:35.801Z,78.40
2017-12-17T03:35:04.139Z,78.50
2017-12-17T03:37:31.690Z,78.50
2017-12-17T03:39:59.254Z,78.80
2017-12-17T03:42:26.854Z,79.00
2017-12-17T03:44:55.168Z,78.90
2017-12-17T03:47:22.752Z,78.90
2017-12-17T03:49:50.337Z,78.80
2017-12-17T03:52:17.879Z,78.70
2017-12-17T03:54:45.428Z,78.60
2017-12-17T03:57:13.009Z,78.60
2017-12-17T03:59:40.590Z,78.60
2017-12-17T04:02:08.937Z,78.50
2017-12-17T04:04:36.513Z,78.50
2017-12-17T04:07:04.068Z,78.30
2017-12-17T04:09:31.615Z,78.90
2017-12-17T04:11:59.955Z,78.20
2017-12-17T04:14:28.279Z,78.00
2017-12-17T04:16:55.838Z,78.10
2017-12-17T04:19:23.434Z,78.10
2017-12-17T04:21:50.999Z,78.30
2017-12-17T04:24:18.556Z,78.40
2017-12-17T04:26:46.901Z,78.80
2017-12-17T04:29:14.488Z,78.90
2017-12-17T04:31:42.841Z,78.70
2017-12-17T04:34:10.434Z,78.70
2017-12-17T04:36:38.004Z,78.50
2017-12-17T04:39:05.575Z,78.50
2017-12-17T04:41:33.162Z,78.50
2017-12-17T04:44:00.729Z,78.70
2017-12-17T04:46:28.272Z,79.00
2017-12-17T04:48:55.848Z,79.10
2017-12-17T04:51:23.400Z,79.20
2017-12-17T04:53:50.946Z,79.10
2017-12-17T04:56:18.533Z,78.90
2017-12-17T04:58:46.087Z,79.10
2017-12-17T05:01:13.638Z,79.10
2017-12-17T05:03:41.224Z,79.00
2017-12-17T05:06:08.765Z,79.00
2017-12-17T05:08:36.330Z,79.00
2017-12-17T05:11:03.916Z,78.90
2017-12-17T05:13:32.226Z,78.80
2017-12-17T05:15:59.791Z,78.80
2017-12-17T05:18:27.365Z,79.00
2017-12-17T05:20:54.925Z,78.90
2017-12-17T05:23:22.482Z,79.00
2017-12-17T05:25:50.060Z,78.80
2017-12-17T05:28:17.622Z,78.70
2017-12-17T05:30:45.172Z,78.60
2017-12-17T05:33:12.773Z,78.70
2017-12-17T05:35:41.126Z,78.60
2017-12-17T05:38:08.683Z,78.60
2017-12-17T05:40:36.248Z,78.60
2017-12-17T05:43:03.822Z,78.90
2017-12-17T05:45:32.149Z,78.90
2017-12-17T05:47:59.717Z,78.90
2017-12-17T05:50:27.290Z,78.80
2017-12-17T05:52:54.842Z,78.70
2017-12-17T05:55:22.449Z,79.00
2017-12-17T05:57:50.786Z,79.30
2017-12-17T06:00:18.331Z,79.30
2017-12-17T06:02:45.900Z,79.30
2017-12-17T06:05:13.453Z,79.20
2017-12-17T06:07:41.009Z,79.20
2017-12-17T06:10:08.584Z,79.30
2017-12-17T06:12:36.130Z,79.60
2017-12-17T06:15:03.714Z,79.60
2017-12-17T06:17:31.307Z,79.50
2017-12-17T06:19:59.641Z,79.20
2017-12-17T06:22:27.213Z,79.20
2017-12-17T06:24:54.813Z,79.20
2017-12-17T06:27:22.363Z,79.30
2017-12-17T06:29:50.676Z,79.20
2017-12-17T06:32:18.240Z,79.20
2017-12-17T06:34:45.798Z,78.90
2017-12-17T06:37:13.378Z,78.90
2017-12-17T06:39:40.959Z,78.70
2017-12-17T06:42:08.515Z,78.90
2017-12-17T06:44:36.060Z,78.90
2017-12-17T06:47:03.624Z,78.70
2017-12-17T06:49:31.196Z,78.50
2017-12-17T06:51:58.736Z,78.50
2017-12-17T06:54:26.331Z,78.70
2017-12-17T06:56:54.675Z,78.70
2017-12-17T06:59:22.220Z,78.70
2017-12-17T07:01:49.798Z,78.60
2017-12-17T07:04:17.356Z,78.50
2017-12-17T07:06:44.915Z,78.50
2017-12-17T07:09:12.505Z,78.50
2017-12-17T07:11:40.864Z,78.90
2017-12-17T07:14:08.412Z,78.90
2017-12-17T07:16:35.993Z,78.90
2017-12-17T07:19:03.544Z,79.00
2017-12-17T07:21:31.098Z,79.00
2017-12-17T07:23:58.700Z,78.90
2017-12-17T07:26:26.273Z,78.90
2017-12-17T07:28:53.837Z,79.10
2017-12-17T07:31:21.451Z,79.10
2017-12-17T07:33:49.010Z,79.00
2017-12-17T07:36:16.599Z,79.40
2017-12-17T07:38:44.174Z,79.20
2017-12-17T07:41:11.714Z,79.10
2017-12-17T07:43:40.053Z,79.00
2017-12-17T07:46:07.628Z,79.00
2017-12-17T07:48:35.179Z,79.00
2017-12-17T07:51:02.752Z,79.00
2017-12-17T07:53:31.082Z,79.00
2017-12-17T07:55:58.650Z,78.90
2017-12-17T07:58:26.219Z,78.80
2017-12-17T08:00:53.799Z,79.20
2017-12-17T08:03:21.358Z,79.30
2017-12-17T08:05:48.913Z,79.50
2017-12-17T08:08:16.506Z,80.00
2017-12-17T08:10:44.086Z,79.20
2017-12-17T08:13:11.660Z,79.10
2017-12-17T08:15:39.242Z,79.10
2017-12-17T08:18:06.809Z,79.10
2017-12-17T08:20:34.382Z,79.10
2017-12-17T08:23:02.758Z,79.40
2017-12-17T08:25:30.312Z,79.40
2017-12-17T08:27:57.871Z,79.30
2017-12-17T08:30:25.469Z,79.30
2017-12-17T08:32:53.015Z,79.30
2017-12-17T08:35:21.339Z,78.80
2017-12-17T08:37:48.958Z,78.80
2017-12-17T08:40:16.556Z,78.60
2017-12-17T08:42:44.116Z,78.30
2017-12-17T08:45:11.712Z,78.50
2017-12-17T08:47:39.288Z,78.60
2017-12-17T08:50:07.606Z,78.70
2017-12-17T08:52:35.183Z,78.70
2017-12-17T08:55:02.747Z,78.50
2017-12-17T08:57:30.296Z,78.30
2017-12-17T08:59:57.886Z,77.90
2017-12-17T09:02:25.450Z,77.90
2017-12-17T09:04:53.015Z,77.90
2017-12-17T09:07:20.646Z,78.30
2017-12-17T09:09:48.198Z,78.20
2017-12-17T09:12:15.748Z,78.30
2017-12-17T09:14:43.350Z,78.20
2017-12-17T09:17:10.915Z,78.40
2017-12-17T09:19:39.241Z,78.40
2017-12-17T09:22:06.827Z,78.30
2017-12-17T09:24:35.137Z,78.30
2017-12-17T09:27:03.492Z,78.30
2017-12-17T09:29:31.079Z,78.30
2017-12-17T09:31:59.422Z,78.30
2017-12-17T09:34:26.986Z,78.30
2017-12-17T09:36:54.585Z,78.30
2017-12-17T09:39:22.912Z,78.60
2017-12-17T09:41:50.463Z,78.60
2017-12-17T09:44:18.032Z,78.70
2017-12-17T09:46:46.352Z,78.90
2017-12-17T09:49:14.665Z,78.60
2017-12-17T09:51:42.261Z,78.60
2017-12-17T09:54:09.823Z,78.60
2017-12-17T09:56:37.373Z,78.80
2017-12-17T09:59:04.964Z,78.80
2017-12-17T10:01:33.303Z,78.30
2017-12-17T10:04:00.872Z,78.20
2017-12-17T10:06:28.451Z,78.30
2017-12-17T10:08:56.016Z,78.30
2017-12-17T10:11:24.325Z,77.20
2017-12-17T10:13:51.905Z,77.20
2017-12-17T10:16:19.490Z,77.30
2017-12-17T10:18:47.049Z,77.30
2017-12-17T10:21:14.646Z,77.10
2017-12-17T10:23:42.980Z,77.60
2017-12-17T10:26:10.521Z,77.60
2017-12-17T10:28:38.096Z,77.40
2017-12-17T10:31:05.657Z,77.80
2017-12-17T10:33:33.199Z,77.20
2017-12-17T10:36:00.802Z,76.80
2017-12-17T10:38:28.368Z,77.40
2017-12-17T10:40:56.695Z,76.30
2017-12-17T10:43:24.301Z,76.30
2017-12-17T10:45:51.870Z,76.10
2017-12-17T10:48:20.194Z,76.00
2017-12-17T10:50:47.779Z,75.90
2017-12-17T10:53:15.328Z,76.10
2017-12-17T10:55:42.868Z,75.80
2017-12-17T10:58:10.432Z,75.50
2017-12-17T11:00:37.986Z,75.80
2017-12-17T11:03:05.536Z,75.70
2017-12-17T11:05:33.131Z,75.70
2017-12-17T11:08:00.686Z,75.90
2017-12-17T11:10:28.231Z,75.40
2017-12-17T11:12:55.809Z,75.90
2017-12-17T11:15:23.375Z,76.10
2017-12-17T11:17:50.917Z,76.60
2017-12-17T11:20:18.504Z,77.00
2017-12-17T11:22:46.060Z,76.50
2017-12-17T11:25:13.609Z,76.00
2017-12-17T11:27:41.198Z,75.10
2017-12-17T11:30:09.525Z,74.80
2017-12-17T11:32:37.072Z,74.80
2017-12-17T11:35:04.660Z,74.60
2017-12-17T11:37:32.217Z,75.00
2017-12-17T11:39:59.763Z,75.40
2017-12-17T11:42:27.336Z,75.50
2017-12-17T11:44:54.897Z,74.80
2017-12-17T11:47:22.449Z,74.20
2017-12-17T11:49:50.017Z,74.00
2017-12-17T11:52:17.588Z,73.70
2017-12-17T11:54:45.142Z,74.10
2017-12-17T11:57:12.725Z,73.50
2017-12-17T11:59:40.329Z,73.00
2017-12-17T12:02:07.871Z,72.80
2017-12-17T12:04:35.436Z,73.30
2017-12-17T12:07:02.988Z,72.60
2017-12-17T12:09:31.335Z,73.00
2017-12-17T12:11:58.945Z,73.00
2017-12-17T12:14:26.483Z,73.40
2017-12-17T12:16:54.046Z,73.30
2017-12-17T12:19:21.626Z,73.80
2017-12-17T12:21:49.196Z,73.70
2017-12-17T12:24:16.736Z,73.60
2017-12-17T12:26:44.308Z,73.90
2017-12-17T12:29:11.851Z,73.80
2017-12-17T12:31:39.400Z,73.90
2017-12-17T12:34:06.980Z,74.10
2017-12-17T12:36:34.537Z,74.00
2017-12-17T12:39:02.111Z,74.10
2017-12-17T12:41:29.671Z,73.60
2017-12-17T12:43:57.212Z,74.30
2017-12-17T12:46:24.762Z,74.40
2017-12-17T12:48:52.338Z,74.50
2017-12-17T12:51:19.907Z,74.80
2017-12-17T12:53:47.462Z,74.80
2017-12-17T12:56:15.048Z,75.20
2017-12-17T12:58:42.629Z,75.70
2017-12-17T13:01:10.181Z,76.20
2017-12-17T13:03:37.760Z,76.90
2017-12-17T13:06:06.108Z,77.80
2017-12-17T13:08:33.653Z,77.30
2017-12-17T13:11:01.231Z,77.30
2017-12-17T13:13:28.793Z,77.10
2017-12-17T13:15:56.372Z,77.30
2017-12-17T13:18:24.733Z,77.40
2017-12-17T13:20:52.280Z,77.40
2017-12-17T13:23:19.821Z,77.30
2017-12-17T13:25:47.398Z,77.30
2017-12-17T13:28:14.945Z,76.80
2017-12-17T13:30:42.500Z,76.10
2017-12-17T13:33:10.082Z,75.70
2017-12-17T13:35:37.631Z,76.10
2017-12-17T13:38:05.185Z,75.40
2017-12-17T13:40:32.752Z,75.30
2017-12-17T13:43:00.321Z,75.10
2017-12-17T13:45:27.872Z,75.50
2017-12-17T13:47:55.441Z,75.20
2017-12-17T13:50:22.991Z,75.50
2017-12-17T13:52:50.553Z,75.70
2017-12-17T13:55:18.158Z,75.50
2017-12-17T13:57:46.475Z,76.30
2017-12-17T14:00:14.034Z,76.30
2017-12-17T14:02:41.630Z,76.10
2017-12-17T14:05:09.181Z,76.40
2017-12-17T14:07:36.728Z,76.80
2017-12-17T14:10:04.293Z,76.60
2017-12-17T14:12:31.843Z,76.50
2017-12-17T14:14:59.414Z,76.40
2017-12-17T14:17:27.000Z,75.50
2017-12-17T14:19:56.254Z,75.20
2017-12-17T14:22:25.887Z,75.30
2017-12-17T14:24:53.485Z,75.30
2017-12-17T14:27:21.042Z,75.10
2017-12-17T14:29:48.610Z,75.30
2017-12-17T14:32:16.202Z,75.40
2017-12-17T14:34:43.773Z,75.70
2017-12-17T14:37:11.320Z,75.90
2017-12-17T14:39:38.917Z,76.20
2017-12-17T14:42:07.234Z,75.90
2017-12-17T14:44:34.780Z,76.00
2017-12-17T14:47:03.125Z,75.80
2017-12-17T14:49:30.668Z,75.70
2017-12-17T14:51:58.218Z,75.80
2017-12-17T14:54:25.791Z,75.90
2017-12-17T14:56:53.349Z,76.00
2017-12-17T14:59:20.913Z,76.10
2017-12-17T15:01:48.479Z,76.10
2017-12-17T15:04:16.034Z,76.10
2017-12-17T15:06:43.590Z,75.90
2017-12-17T15:09:11.163Z,75.90
2017-12-17T15:11:38.732Z,76.00
2017-12-17T15:14:06.267Z,75.70
2017-12-17T15:16:33.867Z,74.80
2017-12-17T15:19:02.206Z,74.30
2017-12-17T15:21:29.748Z,74.30
2017-12-17T15:23:57.342Z,74.30
2017-12-17T15:26:24.902Z,74.20
2017-12-17T15:28:52.464Z,74.40
2017-12-17T15:31:20.065Z,74.60
2017-12-17T15:33:47.622Z,74.80
2017-12-17T15:36:15.169Z,74.40
2017-12-17T15:38:43.501Z,74.60
2017-12-17T15:41:11.045Z,74.60
2017-12-17T15:43:38.596Z,74.60
2017-12-17T15:46:06.182Z,74.60
2017-12-17T15:48:35.339Z,74.40
2017-12-17T15:51:02.894Z,74.40
2017-12-17T15:53:30.507Z,74.40
2017-12-17T15:55:58.071Z,74.30
2017-12-17T15:58:25.637Z,74.20
2017-12-17T16:00:53.233Z,74.10
2017-12-17T16:03:20.780Z,74.60
2017-12-17T16:05:49.085Z,74.20
2017-12-17T16:08:16.671Z,74.20
2017-12-17T16:10:44.230Z,73.80
2017-12-17T16:13:11.814Z,73.60
2017-12-17T16:15:39.383Z,73.70
2017-12-17T16:18:07.691Z,73.30
2017-12-17T16:20:35.241Z,73.30
2017-12-17T16:23:02.824Z,73.10
2017-12-17T16:25:30.364Z,73.00
2017-12-17T16:27:57.922Z,73.00
2017-12-17T16:30:25.507Z,72.90
2017-12-17T16:32:53.080Z,72.80
2017-12-17T16:35:20.663Z,72.50
2017-12-17T16:37:48.237Z,72.50
2017-12-17T16:40:16.575Z,72.90
2017-12-17T16:42:44.118Z,72.30
2017-12-17T16:45:11.695Z,72.00
2017-12-17T16:47:39.292Z,71.80
2017-12-17T16:50:07.654Z,71.80
2017-12-17T16:52:35.231Z,71.80
2017-12-17T16:55:03.539Z,71.70
2017-12-17T16:57:31.101Z,71.70
2017-12-17T16:59:58.680Z,71.90
2017-12-17T17:02:26.250Z,71.80
2017-12-17T17:04:53.838Z,71.80
2017-12-17T17:07:21.423Z,71.80
2017-12-17T17:09:49.750Z,71.70
2017-12-17T17:12:17.323Z,71.70
2017-12-17T17:14:44.903Z,71.70
2017-12-17T17:17:12.444Z,71.80
2017-12-17T17:19:40.012Z,71.80
2017-12-17T17:22:08.378Z,71.90
2017-12-17T17:24:35.955Z,71.90
2017-12-17T17:27:04.289Z,72.00
2017-12-17T17:29:31.935Z,72.00
2017-12-17T17:31:59.490Z,72.20
2017-12-17T17:34:27.032Z,72.40
2017-12-17T17:36:55.396Z,72.70
2017-12-17T17:39:23.722Z,72.70
2017-12-17T17:41:51.298Z,72.70
2017-12-17T17:44:18.867Z,72.70
2017-12-17T17:46:46.417Z,72.60
2017-12-17T17:49:13.969Z,72.70
2017-12-17T17:51:41.554Z,73.00
2017-12-17T17:54:09.123Z,73.10
2017-12-17T17:56:36.677Z,73.60
2017-12-17T17:59:04.244Z,73.70
2017-12-17T18:01:31.788Z,73.80
2017-12-17T18:03:59.343Z,73.40
2017-12-17T18:06:26.931Z,73.30
2017-12-17T18:08:55.260Z,73.00
2017-12-17T18:11:22.822Z,73.00
2017-12-17T18:13:50.398Z,73.10
2017-12-17T18:16:17.936Z,73.20
2017-12-17T18:18:45.482Z,73.20
2017-12-17T18:21:13.058Z,73.00
2017-12-17T18:23:40.606Z,72.90
2017-12-17T18:26:08.170Z,72.70
2017-12-17T18:28:35.754Z,72.60
2017-12-17T18:31:03.308Z,72.60
2017-12-17T18:33:30.863Z,72.70
2017-12-17T18:35:58.440Z,73.10
2017-12-17T18:38:25.986Z,72.40
2017-12-17T18:40:53.529Z,72.40
2017-12-17T18:43:21.096Z,72.40
2017-12-17T18:45:48.656Z,72.50
2017-12-17T18:48:16.208Z,72.50
2017-12-17T18:50:43.787Z,72.50
2017-12-17T18:53:11.325Z,72.60
2017-12-17T18:55:38.884Z,72.70
2017-12-17T18:58:06.453Z,72.60
2017-12-17T19:00:34.033Z,72.70
2017-12-17T19:03:01.582Z,72.50
2017-12-17T19:05:29.161Z,72.50
2017-12-17T19:07:56.731Z,72.30
2017-12-17T19:10:25.061Z,72.40
2017-12-17T19:12:52.638Z,72.50
2017-12-17T19:15:20.238Z,72.50
2017-12-17T19:17:48.560Z,72.40
2017-12-17T19:20:16.124Z,72.40
2017-12-17T19:22:43.696Z,72.80
2017-12-17T19:25:11.274Z,72.70
2017-12-17T19:27:38.863Z,72.70
2017-12-17T19:30:07.183Z,72.20
2017-12-17T19:32:34.745Z,72.20
2017-12-17T19:35:02.343Z,72.30
2017-12-17T19:37:30.671Z,72.20
2017-12-17T19:39:58.260Z,72.20
2017-12-17T19:42:25.841Z,72.00
2017-12-17T19:44:53.422Z,71.80
2017-12-17T19:47:20.975Z,71.70
2017-12-17T19:49:49.430Z,71.40
2017-12-17T19:52:17.839Z,71.30
2017-12-17T19:54:45.654Z,71.30
2017-12-17T19:57:13.537Z,71.30
2017-12-17T19:59:42.204Z,71.90
2017-12-17T20:02:10.108Z,71.30
2017-12-17T20:04:38.051Z,71.10
2017-12-17T20:07:06.716Z,70.90
2017-12-17T20:09:34.424Z,70.90
2017-12-17T20:12:03.083Z,70.80
2017-12-17T20:14:30.978Z,70.80
2017-12-17T20:16:58.793Z,71.30
2017-12-17T20:19:26.705Z,70.50
2017-12-17T20:21:55.253Z,70.60
2017-12-17T20:24:23.007Z,70.60
2017-12-17T20:26:54.776Z,70.50
2017-12-17T20:29:18.901Z,70.60
2017-12-17T20:31:46.751Z,70.40
2017-12-17T20:34:15.403Z,70.40
2017-12-17T20:36:43.387Z,70.30
2017-12-17T20:39:11.830Z,70.20
2017-12-17T20:41:39.491Z,70.20
2017-12-17T20:44:07.102Z,70.20
2017-12-17T20:46:34.664Z,70.20
2017-12-17T20:49:02.353Z,70.90
2017-12-17T20:51:30.013Z,70.20
2017-12-17T20:53:57.580Z,70.00
2017-12-17T20:56:25.197Z,69.90
2017-12-17T20:58:52.775Z,69.90
2017-12-17T21:01:20.357Z,69.90
2017-12-17T21:03:47.964Z,69.90
2017-12-17T21:06:15.531Z,69.80
2017-12-17T21:08:43.077Z,69.60
2017-12-17T21:11:10.656Z,69.40
2017-12-17T21:13:39.014Z,69.10
2017-12-17T21:16:06.570Z,69.10
2017-12-17T21:18:34.140Z,69.00
2017-12-17T21:21:01.720Z,69.10
2017-12-17T21:23:29.264Z,69.10
2017-12-17T21:25:56.829Z,69.20
2017-12-17T21:28:24.409Z,69.00
2017-12-17T21:30:51.962Z,69.00
2017-12-17T21:33:19.557Z,69.20
2017-12-17T21:35:47.110Z,69.20
2017-12-17T21:38:15.425Z,69.30
2017-12-17T21:40:43.012Z,69.40
2017-12-17T21:43:10.559Z,69.40
2017-12-17T21:45:38.113Z,69.50
2017-12-17T21:48:05.703Z,69.60
2017-12-17T21:50:33.257Z,69.80
2017-12-17T21:53:00.836Z,69.80
2017-12-17T21:55:29.171Z,70.00
2017-12-17T21:57:56.829Z,70.00
2017-12-17T22:00:24.379Z,70.10
2017-12-17T22:02:51.943Z,70.10
2017-12-17T22:05:19.499Z,70.30
2017-12-17T22:07:47.077Z,70.40
2017-12-17T22:10:14.653Z,70.40
2017-12-17T22:12:42.195Z,70.50
2017-12-17T22:15:09.766Z,70.70
2017-12-17T22:17:37.345Z,70.50
2017-12-17T22:20:05.674Z,70.30
2017-12-17T22:22:33.237Z,70.30
2017-12-17T22:25:00.818Z,70.30
2017-12-17T22:27:28.367Z,70.20
2017-12-17T22:29:55.931Z,70.10
2017-12-17T22:32:23.496Z,70.20
2017-12-17T22:34:51.066Z,70.10
2017-12-17T22:37:20.117Z,70.00
2017-12-17T22:39:47.686Z,69.90
2017-12-17T22:42:15.244Z,69.90
2017-12-17T22:44:42.786Z,70.00
2017-12-17T22:47:10.365Z,70.00
2017-12-17T22:49:37.946Z,70.10
2017-12-17T22:52:05.494Z,70.00
2017-12-17T22:54:33.069Z,70.10
2017-12-17T22:57:00.619Z,70.30
2017-12-17T22:59:28.265Z,70.20
2017-12-17T23:01:55.851Z,70.30
2017-12-17T23:04:23.403Z,70.40
2017-12-17T23:06:50.966Z,70.40
2017-12-17T23:09:18.558Z,70.20
2017-12-17T23:11:46.872Z,70.20
2017-12-17T23:14:14.502Z,70.20
2017-12-17T23:16:42.032Z,70.20
2017-12-17T23:19:09.587Z,70.50
2017-12-17T23:21:37.143Z,70.60
2017-12-17T23:24:04.752Z,70.70
2017-12-17T23:26:32.323Z,70.90
2017-12-17T23:28:59.869Z,70.90
2017-12-17T23:31:28.212Z,70.70
2017-12-17T23:33:55.777Z,70.80
2017-12-17T23:36:23.369Z,70.50
2017-12-17T23:38:50.957Z,70.60
2017-12-17T23:41:18.507Z,70.50
2017-12-17T23:43:46.061Z,70.70
2017-12-17T23:46:13.635Z,70.40
2017-12-17T23:48:41.190Z,70.00
2017-12-17T23:51:08.746Z,70.00
2017-12-17T23:53:36.346Z,69.60
2017-12-17T23:56:03.905Z,69.40
2017-12-17T23:58:31.466Z,69.60
